Accueil
METAR-TAF:

METAR-TAF

Aéroports :

Grande Canarie, Espagne

Aéroport de Gran Canaria

latitude: 27-56N, longitude: 015-23W, altitude: 23 m

Observation

Le bulletin a été fait il y a 16 minutes, à 22:30 UTC
Vent 17 kt de nord
Température 18°C
Humidité 73%
Pression 1021 hPa
Visibilité 10 km ou plus
Quelques nuages à une hauteur de 2800 ft
Nuages épars à une hauteur de 3500 ft

METAR: GCLP 242230Z 35017KT 9999 FEW028 SCT035 18/13 Q1021 NOSIG

Heure: 23:46 (22:46 UTC)

Prévision

Le bulletin a été fait il y a 2 heures et 46 minutes, à 20:00 UTC
Prévision valable du 24 à 21 UTC au 25 à 21 UTC
Vent 16 kt de nord
Visibilité 10 km ou plus
Nuages fragmentés à une hauteur de 3000 ft
Temporairement
du 25 à 08 UTC au 25 à 20 UTC
Vent 22 kt de nord avec des rafales jusqu'à 32 kt

TAF: GCLP 242000Z 2421/2521 35016KT 9999 BKN030 TX23/2514Z TN17/2505Z TEMPO 2508/2520 01022G32KT

Observations et prévisions météorologiques de plus de 4000 aéroports (messages METAR et TAF).

Les stations disponibles sont représentées par des disques jaunes et rouges sur la carte.

Passer la souris dessus pour voir le nom de la station.

Cliquer dessus pour voir les observations et prévisions météorologiques.

Pour changer de carte: cliquez sur les boutons verts avec une croix noire pour zoomer, sur le bouton vert avec un tiret pour effectuer un zoom arrière, ou sur les flèches vertes pour les cartes adjacentes.


METAR-TAF: